Observations for CARDIFF-WALES ARPT, United Kingdom (EGFF)

EGFF 190320Z AUTO 22010KT 9999 FEW021 16/14 Q1009   
EGFF 190250Z AUTO 22011KT 9999 FEW021 16/14 Q1009   
EGFF 190220Z AUTO 23011KT 9999 FEW026 16/14 Q1010   
EGFF 190150Z AUTO 22011KT 9999 FEW035 16/14 Q1010   
EGFF 190120Z AUTO 24009KT 200V260 9999 FEW024 17/14 Q1010   
EGFF 190050Z AUTO 24010KT 9999 SCT035 16/14 Q1010   
EGFF 190020Z AUTO 24011KT 9999 FEW024 17/14 Q1010   
EGFF 182350Z AUTO 25009KT 9999 BKN020 17/15 Q1010   
EGFF 182320Z AUTO 24010KT 9999 NCD 17/15 Q1010  
EGFF 182250Z AUTO 24011KT 9999 BKN022/// BKN028/// //////CB 17/15 Q1010 
EGFF 182220Z AUTO 23014KT 9999 -RA FEW022/// SCT028/// BKN035/// //////TCU 17/15 Q1010  
EGFF 182150Z AUTO 22012KT 9999 BKN023/// BKN041/// //////CB 18/15 Q1010 
EGFF 182120Z AUTO 22012KT 9999 BKN043 18/14 Q1010   
EGFF 182050Z AUTO 22012KT 9999 BKN044/// //////TCU 18/14 Q1010  
EGFF 182020Z AUTO 22013KT 9999 NCD 18/15 Q1010  
EGFF 181950Z AUTO 22013KT 9999 NCD 18/15 Q1010  
EGFF 181920Z AUTO 22013KT 9999 OVC047 18/15 Q1009   
EGFF 181850Z AUTO 22013KT 9999 OVC043 18/15 Q1009   
EGFF 181820Z AUTO 21015KT 9999 BKN047 18/15 Q1009   
EGFF 181750Z AUTO 22014KT 9999 BKN044/// //////CB 19/15 Q1009   
EGFF 181720Z AUTO 22011G21KT 9999 SCT044 19/15 Q1009
EGFF 181650Z AUTO 21010G21KT 9999 SCT028/// BKN036/// //////TCU 19/15 Q1009 
EGFF 181620Z AUTO 22009KT 9999 BKN028 OVC045 19/16 Q1009
EGFF 181550Z AUTO 23009KT 9999 BKN025 BKN032 19/16 Q1009
EGFF 181520Z AUTO 23008KT 9999 OVC045 19/16 Q1009   
EGFF 181450Z AUTO 23009KT 9999 FEW029 20/16 Q1009   
EGFF 181420Z 24012KT 9999 FEW018 SCT033 19/16 Q1009 
EGFF 181350Z 25011KT 9999 FEW022 BKN047 19/16 Q1009 
EGFF 181320Z 25012KT 9999 SCT019 BKN027 OVC049 18/16 Q1009 RERA 
EGFF 181250Z AUTO 25013KT 9999 SCT023 BKN028 OVC034 18/15 Q1009 
EGFF 181220Z AUTO 25013KT 9999 BKN023 18/15 Q1009   
EGFF 181150Z AUTO 25015KT 9999 OVC021 18/15 Q1008   
EGFF 181120Z AUTO 24011KT 9999 BKN019 OVC028 18/15 Q1008
EGFF 181050Z AUTO 24014KT 9999 BKN021 OVC032 18/15 Q1008
EGFF 181020Z AUTO 25014KT 9999 FEW021 OVC028 17/15 Q1008
EGFF 180950Z AUTO 26017KT 9999 BKN018 17/14 Q1007   
EGFF 180920Z AUTO 26017G30KT 9999 BKN019 OVC025 17/14 Q1007 
EGFF 180850Z AUTO 26020G33KT 9999 OVC019 17/13 Q1006
EGFF 180820Z AUTO 26022G34KT 9999 SCT016 BKN021 OVC043 16/13 Q1006  
EGFF 180750Z AUTO 26020KT 9999 BKN015 OVC022 16/13 Q1005
EGFF 180720Z AUTO 26022G32KT 9999 SCT013 BKN017 OVC022 16/13 Q1005  
EGFF 180650Z AUTO 25020G30KT 9999 SCT009 OVC015 16/14 Q1004 
EGFF 180620Z AUTO 25020G30KT 9999 OVC011 16/14 Q1003
EGFF 180550Z AUTO 24018KT 9999 BKN013 OVC022 17/15 Q1003
EGFF 180520Z AUTO 24019KT 9999 BKN014 OVC021 17/15 Q1002
EGFF 180450Z AUTO 24012KT 9999 OVC014 18/16 Q1002   
EGFF 180420Z AUTO 22012KT 9999 OVC016 18/16 Q1001   
EGFF 180350Z AUTO 22014KT 9999 BKN017 OVC022 18/15 Q1001
EGFF 180320Z AUTO 21012KT 9999 OVC018 18/15 Q1001   
EGFF 180250Z AUTO 20017G27KT 9999 OVC019 19/16 Q1001